createdAt,value
2022-08-17T00:00:43.158Z,99564.11
2022-08-17T00:03:30.576Z,99567.26
2022-08-17T00:06:15.998Z,99571.01
2022-08-17T00:08:56.702Z,99566.77
2022-08-17T00:11:32.316Z,99564.27
2022-08-17T00:14:04.925Z,99560.27
2022-08-17T00:16:56.657Z,99556.13
2022-08-17T00:19:26.371Z,99552.51
2022-08-17T00:22:31.479Z,99551.89
2022-08-17T00:24:45.596Z,99554.17
2022-08-17T00:27:13.567Z,99551.15
2022-08-17T00:29:42.318Z,99540.37
2022-08-17T00:33:14.072Z,99541.13
2022-08-17T00:34:58.347Z,99537.83
2022-08-17T00:37:26.339Z,99536.48
2022-08-17T00:39:54.398Z,99533.32
2022-08-17T00:42:22.353Z,99531.28
2022-08-17T00:44:50.336Z,99531.88
2022-08-17T00:47:18.329Z,99535.52
2022-08-17T00:49:46.271Z,99531.53
2022-08-17T00:52:20.649Z,99530.38
2022-08-17T00:54:52.411Z,99528.76
2022-08-17T00:57:26.575Z,99532.50
2022-08-17T01:00:03.190Z,99537.37
2022-08-17T01:02:42.347Z,99544.45
2022-08-17T01:05:17.213Z,99550.15
2022-08-17T01:07:50.255Z,99552.81
2022-08-17T01:10:58.995Z,99556.27
2022-08-17T01:13:12.369Z,99558.39
2022-08-17T01:15:48.894Z,99561.34
2022-08-17T01:18:16.990Z,99558.27
2022-08-17T01:20:52.308Z,99557.54
2022-08-17T01:23:23.618Z,99557.17
2022-08-17T01:25:55.107Z,99554.54
2022-08-17T01:28:36.476Z,99552.09
2022-08-17T01:31:14.743Z,99552.14
2022-08-17T01:33:43.082Z,99554.34
2022-08-17T01:36:11.198Z,99552.71
2022-08-17T01:38:40.566Z,99549.95
2022-08-17T01:41:13.806Z,99547.19
2022-08-17T01:43:55.388Z,99543.77
2022-08-17T01:46:27.252Z,99542.91
2022-08-17T01:48:57.715Z,99544.34
2022-08-17T01:51:33.292Z,99540.77
2022-08-17T01:54:06.971Z,99541.63
2022-08-17T01:56:38.795Z,99540.02
2022-08-17T01:59:06.780Z,99544.30
2022-08-17T02:01:35.823Z,99544.11
2022-08-17T02:04:06.745Z,99544.64
2022-08-17T02:06:45.080Z,99544.52
2022-08-17T02:09:26.343Z,99539.77
2022-08-17T02:12:37.939Z,99542.85
2022-08-17T02:14:48.677Z,99541.35
2022-08-17T02:17:16.751Z,99541.02
2022-08-17T02:19:44.560Z,99541.98
2022-08-17T02:22:13.779Z,99543.61
2022-08-17T02:25:00.929Z,99543.04
2022-08-17T02:27:30.530Z,99545.17
2022-08-17T02:29:58.484Z,99548.27
2022-08-17T02:32:28.227Z,99554.00
2022-08-17T02:35:01.019Z,99557.23
2022-08-17T02:37:30.183Z,99562.23
2022-08-17T02:39:59.636Z,99565.03
2022-08-17T02:42:42.985Z,99567.00
2022-08-17T02:45:17.667Z,99564.52
2022-08-17T02:47:46.410Z,99572.09
2022-08-17T02:50:17.856Z,99579.14
2022-08-17T02:52:48.876Z,99584.55
2022-08-17T02:55:33.456Z,99583.88
2022-08-17T02:58:03.727Z,99585.58
2022-08-17T03:00:36.770Z,99582.95
2022-08-17T03:03:06.235Z,99580.30
2022-08-17T03:05:36.487Z,99579.43
2022-08-17T03:08:06.754Z,99575.02
2022-08-17T03:10:39.770Z,99574.61
2022-08-17T03:13:07.742Z,99573.75
2022-08-17T03:15:35.737Z,99574.09
2022-08-17T03:18:08.586Z,99580.45
2022-08-17T03:20:47.102Z,99579.05
2022-08-17T03:23:15.111Z,99579.42
2022-08-17T03:25:46.729Z,99578.98
2022-08-17T03:28:14.795Z,99575.70
2022-08-17T03:30:42.795Z,99578.52
2022-08-17T03:33:12.929Z,99577.63
2022-08-17T03:35:41.326Z,99579.73
2022-08-17T03:38:11.396Z,99583.52
2022-08-17T03:40:56.792Z,99581.56
2022-08-17T03:43:30.794Z,99582.12
2022-08-17T03:46:34.372Z,99578.94
2022-08-17T03:49:24.565Z,99584.18
2022-08-17T03:52:12.907Z,99590.50
2022-08-17T03:55:00.954Z,99592.09
2022-08-17T03:57:30.436Z,99595.02
2022-08-17T04:00:00.064Z,99599.70
2022-08-17T04:02:31.603Z,99596.30
2022-08-17T04:05:00.290Z,99597.29
2022-08-17T04:07:31.269Z,99602.39
2022-08-17T04:09:59.879Z,99604.54
2022-08-17T04:12:42.148Z,99608.77
2022-08-17T04:15:11.948Z,99607.52
2022-08-17T04:17:40.649Z,99610.65
2022-08-17T04:20:09.380Z,99613.37
2022-08-17T04:22:37.262Z,99612.98
2022-08-17T04:25:16.053Z,99610.73
2022-08-17T04:27:44.074Z,99609.02
2022-08-17T04:30:13.279Z,99608.18
2022-08-17T04:33:09.726Z,99611.38
2022-08-17T04:35:50.822Z,99613.64
2022-08-17T04:38:21.639Z,99617.58
2022-08-17T04:41:08.319Z,99619.88
2022-08-17T04:43:38.854Z,99623.34
2022-08-17T04:46:10.158Z,99628.22
2022-08-17T04:48:42.764Z,99629.41
2022-08-17T04:51:18.207Z,99630.80
2022-08-17T04:53:54.057Z,99631.94
2022-08-17T04:56:26.110Z,99636.25
2022-08-17T04:58:58.795Z,99636.55
2022-08-17T05:01:28.950Z,99637.19
2022-08-17T05:04:18.378Z,99633.77
2022-08-17T05:06:50.131Z,99634.27
2022-08-17T05:09:18.548Z,99635.80
2022-08-17T05:11:47.334Z,99643.73
2022-08-17T05:14:15.354Z,99640.80
2022-08-17T05:16:43.202Z,99641.80
2022-08-17T05:19:10.992Z,99644.38
2022-08-17T05:21:38.876Z,99644.36
2022-08-17T05:24:16.718Z,99646.19
2022-08-17T05:26:54.694Z,99648.99
2022-08-17T05:29:23.278Z,99646.97
2022-08-17T05:32:38.224Z,99651.51
2022-08-17T05:35:00.707Z,99648.44
2022-08-17T05:37:28.977Z,99649.95
2022-08-17T05:39:56.931Z,99654.46
2022-08-17T05:42:24.874Z,99653.20
2022-08-17T05:44:52.886Z,99657.40
2022-08-17T05:47:24.149Z,99659.73
2022-08-17T05:49:53.901Z,99658.70
2022-08-17T05:52:40.498Z,99658.18
2022-08-17T05:55:18.212Z,99660.83
2022-08-17T05:57:53.079Z,99659.76
2022-08-17T06:00:30.575Z,99659.85
2022-08-17T06:03:23.757Z,99658.76
2022-08-17T06:06:16.075Z,99661.02
2022-08-17T06:09:14.472Z,99658.42
2022-08-17T06:11:42.247Z,99659.13
2022-08-17T06:14:35.561Z,99662.70
2022-08-17T06:17:08.825Z,99665.13
2022-08-17T06:19:54.760Z,99662.77
2022-08-17T06:22:28.254Z,99662.40
2022-08-17T06:25:22.662Z,99665.80
2022-08-17T06:27:56.791Z,99665.31
2022-08-17T06:30:28.436Z,99665.59
2022-08-17T06:33:07.945Z,99667.48
2022-08-17T06:36:09.496Z,99665.05
2022-08-17T06:39:22.863Z,99667.73
2022-08-17T06:43:02.331Z,99665.96
2022-08-17T06:45:09.893Z,99667.80
2022-08-17T06:47:48.841Z,99670.58
2022-08-17T06:50:44.342Z,99666.68
2022-08-17T06:53:12.201Z,99663.98
2022-08-17T06:56:00.004Z,99665.96
2022-08-17T06:58:31.464Z,99665.45
2022-08-17T07:01:16.317Z,99669.05
2022-08-17T07:04:11.866Z,99669.66
2022-08-17T07:06:44.718Z,99674.66
2022-08-17T07:09:23.362Z,99675.48
2022-08-17T07:11:57.246Z,99678.05
2022-08-17T07:14:54.412Z,99681.80
2022-08-17T07:17:46.955Z,99680.38
2022-08-17T07:20:15.978Z,99681.30
2022-08-17T07:22:59.815Z,99680.46
2022-08-17T07:25:30.940Z,99681.25
2022-08-17T07:28:06.030Z,99683.07
2022-08-17T07:30:47.587Z,99679.49
2022-08-17T07:33:23.696Z,99676.48
2022-08-17T07:35:52.191Z,99678.02
2022-08-17T07:38:29.712Z,99679.42
2022-08-17T07:41:04.941Z,99678.55
2022-08-17T07:43:42.094Z,99682.44
2022-08-17T07:46:47.850Z,99682.59
2022-08-17T07:49:16.987Z,99684.80
2022-08-17T07:51:45.795Z,99684.41
2022-08-17T07:54:18.544Z,99680.79
2022-08-17T07:56:52.681Z,99684.08
2022-08-17T07:59:28.619Z,99688.59
2022-08-17T08:02:15.055Z,99685.54
2022-08-17T08:05:01.339Z,99686.88
2022-08-17T08:07:35.614Z,99686.41
2022-08-17T08:10:25.580Z,99686.94
2022-08-17T08:13:14.028Z,99687.70
2022-08-17T08:15:53.593Z,99682.54
2022-08-17T08:18:54.967Z,99683.55
2022-08-17T08:21:29.181Z,99682.11
2022-08-17T08:24:06.236Z,99683.00
2022-08-17T08:26:46.489Z,99682.37
2022-08-17T08:29:32.431Z,99684.08
2022-08-17T08:32:21.866Z,99681.50
2022-08-17T08:35:08.962Z,99681.45
2022-08-17T08:38:02.111Z,99678.32
2022-08-17T08:41:00.949Z,99676.61
2022-08-17T08:43:38.290Z,99675.01
2022-08-17T08:46:25.960Z,99675.90
2022-08-17T08:49:10.161Z,99680.59
2022-08-17T08:51:52.277Z,99682.59
2022-08-17T08:54:42.781Z,99687.92
2022-08-17T08:57:30.766Z,99682.70
2022-08-17T09:00:10.145Z,99682.23
2022-08-17T09:02:40.722Z,99684.55
2022-08-17T09:05:16.274Z,99684.73
2022-08-17T09:07:59.340Z,99684.84
2022-08-17T09:10:34.990Z,99687.95
2022-08-17T09:13:41.358Z,99685.54
2022-08-17T09:16:15.386Z,99684.93
2022-08-17T09:19:03.007Z,99681.98
2022-08-17T09:21:38.252Z,99681.24
2022-08-17T09:24:37.874Z,99684.48
2022-08-17T09:27:09.406Z,99681.01
2022-08-17T09:29:43.662Z,99676.76
2022-08-17T09:32:25.012Z,99675.73
2022-08-17T09:34:57.398Z,99675.02
2022-08-17T09:37:37.644Z,99675.21
2022-08-17T09:40:25.685Z,99675.13
2022-08-17T09:43:00.932Z,99677.14
2022-08-17T09:45:38.088Z,99677.67
2022-08-17T09:48:20.852Z,99676.75
2022-08-17T09:51:27.076Z,99678.39
2022-08-17T09:54:09.502Z,99682.42
2022-08-17T09:57:29.184Z,99676.90
2022-08-17T10:00:16.965Z,99676.95
2022-08-17T10:03:04.569Z,99675.36
2022-08-17T10:05:48.048Z,99675.34
2022-08-17T10:08:32.152Z,99673.67
2022-08-17T10:11:11.682Z,99673.29
2022-08-17T10:14:36.720Z,99671.79
2022-08-17T10:17:25.259Z,99674.91
2022-08-17T10:20:06.787Z,99677.52
2022-08-17T10:23:07.831Z,99677.39
2022-08-17T10:26:02.762Z,99678.13
2022-08-17T10:28:39.912Z,99680.95
2022-08-17T10:31:33.667Z,99676.05
2022-08-17T10:34:40.961Z,99677.55
2022-08-17T10:37:19.608Z,99679.43
2022-08-17T10:40:07.188Z,99679.30
2022-08-17T10:42:50.256Z,99678.89
2022-08-17T10:45:45.557Z,99672.16
2022-08-17T10:48:27.027Z,99672.55
2022-08-17T10:51:08.783Z,99665.86
2022-08-17T10:53:37.830Z,99668.13
2022-08-17T10:56:14.318Z,99668.38
2022-08-17T10:58:57.411Z,99662.19
2022-08-17T11:01:34.997Z,99656.66
2022-08-17T11:04:11.810Z,99662.02
2022-08-17T11:06:42.115Z,99655.34
2022-08-17T11:09:28.334Z,99656.92
2022-08-17T11:12:25.645Z,99653.68
2022-08-17T11:15:00.493Z,99657.19
2022-08-17T11:17:43.246Z,99658.17
2022-08-17T11:20:30.573Z,99656.66
2022-08-17T11:22:59.141Z,99652.83
2022-08-17T11:25:47.356Z,99653.00
2022-08-17T11:28:48.891Z,99645.58
2022-08-17T11:31:38.904Z,99647.13
2022-08-17T11:34:19.780Z,99642.58
2022-08-17T11:37:02.101Z,99643.15
2022-08-17T11:39:51.393Z,99642.36
2022-08-17T11:42:31.225Z,99642.94
2022-08-17T11:45:32.383Z,99637.10
2022-08-17T11:48:42.639Z,99636.08
2022-08-17T11:51:36.040Z,99632.98
2022-08-17T11:54:33.431Z,99629.09
2022-08-17T11:57:27.573Z,99632.52
2022-08-17T11:59:58.766Z,99632.84
2022-08-17T12:02:34.467Z,99632.16
2022-08-17T12:05:15.491Z,99629.19
2022-08-17T12:07:59.428Z,99622.98
2022-08-17T12:10:34.331Z,99621.11
2022-08-17T12:13:15.853Z,99620.85
2022-08-17T12:15:49.841Z,99618.11
2022-08-17T12:18:25.136Z,99619.34
2022-08-17T12:21:09.146Z,99615.31
2022-08-17T12:23:59.356Z,99614.00
2022-08-17T12:26:31.860Z,99610.36
2022-08-17T12:29:06.447Z,99614.16
2022-08-17T12:31:44.697Z,99611.86
2022-08-17T12:34:19.103Z,99611.63
2022-08-17T12:36:53.070Z,99605.58
2022-08-17T12:39:24.981Z,99602.59
2022-08-17T12:42:01.980Z,99600.65
2022-08-17T12:44:34.118Z,99601.73
2022-08-17T12:47:22.870Z,99599.54
2022-08-17T12:49:53.731Z,99598.15
2022-08-17T12:52:28.431Z,99600.92
2022-08-17T12:55:02.112Z,99602.71
2022-08-17T12:57:38.919Z,99602.25
2022-08-17T13:00:17.795Z,99599.48
2022-08-17T13:02:58.868Z,99599.06
2022-08-17T13:05:34.114Z,99590.70
2022-08-17T13:08:15.376Z,99585.45
2022-08-17T13:10:53.392Z,99584.55
2022-08-17T13:13:28.285Z,99584.30
2022-08-17T13:16:27.627Z,99588.45
2022-08-17T13:19:08.055Z,99588.80
2022-08-17T13:21:38.127Z,99586.23
2022-08-17T13:24:19.803Z,99585.70
2022-08-17T13:26:54.261Z,99585.15
2022-08-17T13:29:45.100Z,99586.19
2022-08-17T13:32:39.857Z,99584.35
2022-08-17T13:35:39.783Z,99584.23
2022-08-17T13:38:10.280Z,99583.15
2022-08-17T13:40:45.234Z,99579.94
2022-08-17T13:43:48.500Z,99574.60
2022-08-17T13:46:19.637Z,99574.27
2022-08-17T13:49:04.756Z,99573.19
2022-08-17T13:51:45.319Z,99572.98
2022-08-17T13:54:26.651Z,99573.06
2022-08-17T13:56:57.888Z,99574.16
2022-08-17T13:59:53.326Z,99574.77
2022-08-17T14:02:22.962Z,99577.19
2022-08-17T14:04:56.855Z,99575.52
2022-08-17T14:07:32.473Z,99578.50
2022-08-17T14:10:02.599Z,99579.61
2022-08-17T14:12:32.023Z,99582.36
2022-08-17T14:15:01.103Z,99587.43
2022-08-17T14:17:35.052Z,99590.47
2022-08-17T14:20:12.470Z,99587.06
2022-08-17T14:22:45.106Z,99583.58
2022-08-17T14:25:16.886Z,99578.01
2022-08-17T14:27:52.829Z,99579.64
2022-08-17T14:30:29.117Z,99580.39
2022-08-17T14:32:59.227Z,99576.70
2022-08-17T14:35:28.307Z,99571.02
2022-08-17T14:37:56.867Z,99567.55
2022-08-17T14:40:25.718Z,99571.58
2022-08-17T14:42:56.038Z,99572.64
2022-08-17T14:45:27.391Z,99569.98
2022-08-17T14:48:04.643Z,99565.94
2022-08-17T14:50:35.341Z,99564.77
2022-08-17T14:53:06.890Z,99569.88
2022-08-17T14:55:37.015Z,99570.65
2022-08-17T14:58:04.779Z,99567.92
2022-08-17T15:00:33.601Z,99570.22
2022-08-17T15:03:02.572Z,99570.77
2022-08-17T15:05:36.671Z,99576.92
2022-08-17T15:08:06.187Z,99574.98
2022-08-17T15:10:34.642Z,99576.29
2022-08-17T15:13:02.789Z,99574.66
2022-08-17T15:15:31.194Z,99573.51
2022-08-17T15:18:00.385Z,99575.31
2022-08-17T15:20:29.814Z,99570.17
2022-08-17T15:22:59.330Z,99566.84
2022-08-17T15:25:29.975Z,99561.39
2022-08-17T15:27:58.793Z,99561.40
2022-08-17T15:30:27.796Z,99562.85
2022-08-17T15:33:06.390Z,99560.77
2022-08-17T15:35:39.294Z,99562.30
2022-08-17T15:38:12.080Z,99561.05
2022-08-17T15:40:44.415Z,99560.35
2022-08-17T15:43:24.759Z,99556.77
2022-08-17T15:46:01.783Z,99552.77
2022-08-17T15:48:41.790Z,99548.02
2022-08-17T15:51:24.151Z,99543.86
2022-08-17T15:53:57.638Z,99541.40
2022-08-17T15:56:27.004Z,99544.11
2022-08-17T15:58:55.437Z,99542.31
2022-08-17T16:01:40.512Z,99537.92
2022-08-17T16:04:26.910Z,99537.23
2022-08-17T16:07:07.040Z,99536.64
2022-08-17T16:09:38.955Z,99537.73
2022-08-17T16:12:16.833Z,99537.77
2022-08-17T16:14:46.152Z,99539.36
2022-08-17T16:17:38.502Z,99541.55
2022-08-17T16:20:03.167Z,99544.13
2022-08-17T16:22:40.124Z,99547.48
2022-08-17T16:25:17.436Z,99548.85
2022-08-17T16:27:48.210Z,99550.71
2022-08-17T16:30:17.713Z,99551.52
2022-08-17T16:32:50.694Z,99552.25
2022-08-17T16:35:22.147Z,99554.26
2022-08-17T16:37:54.360Z,99556.50
2022-08-17T16:40:26.025Z,99559.12
2022-08-17T16:42:55.471Z,99564.66
2022-08-17T16:45:31.450Z,99568.54
2022-08-17T16:48:01.742Z,99568.76
2022-08-17T16:50:29.853Z,99567.11
2022-08-17T16:53:17.465Z,99566.30
2022-08-17T16:55:47.102Z,99563.62
2022-08-17T16:58:15.935Z,99567.48
2022-08-17T17:00:46.665Z,99567.45
2022-08-17T17:03:19.615Z,99566.11
2022-08-17T17:05:51.465Z,99571.33
2022-08-17T17:08:40.719Z,99577.98
2022-08-17T17:11:21.645Z,99576.39
2022-08-17T17:14:05.240Z,99573.92
2022-08-17T17:16:50.556Z,99582.64
2022-08-17T17:19:35.140Z,99582.74
2022-08-17T17:22:15.834Z,99582.55
2022-08-17T17:25:02.687Z,99584.98
2022-08-17T17:27:44.714Z,99588.40
2022-08-17T17:30:48.665Z,99587.02
2022-08-17T17:33:24.863Z,99584.44
2022-08-17T17:35:59.357Z,99583.27
2022-08-17T17:38:37.710Z,99590.46
2022-08-17T17:41:26.318Z,99594.70
2022-08-17T17:44:03.037Z,99594.86
2022-08-17T17:46:37.995Z,99593.46
2022-08-17T17:49:06.724Z,99596.03
2022-08-17T17:52:06.607Z,99595.41
2022-08-17T17:54:39.500Z,99595.68
2022-08-17T17:57:21.406Z,99596.79
2022-08-17T17:59:52.053Z,99598.52
2022-08-17T18:02:52.193Z,99601.75
2022-08-17T18:05:48.785Z,99603.85
2022-08-17T18:08:33.901Z,99603.45
2022-08-17T18:11:08.531Z,99603.64
2022-08-17T18:13:53.566Z,99605.62
2022-08-17T18:16:22.653Z,99607.98
2022-08-17T18:18:52.749Z,99608.48
2022-08-17T18:21:24.286Z,99608.41
2022-08-17T18:24:01.379Z,99613.39
2022-08-17T18:26:57.677Z,99620.35
2022-08-17T18:29:31.644Z,99622.98
2022-08-17T18:32:18.239Z,99620.55
2022-08-17T18:34:49.491Z,99622.91
2022-08-17T18:37:55.488Z,99630.72
2022-08-17T18:40:27.517Z,99630.71
2022-08-17T18:43:02.888Z,99630.26
2022-08-17T18:45:38.535Z,99633.52
2022-08-17T18:48:22.767Z,99636.77
2022-08-17T18:50:53.467Z,99634.70
2022-08-17T18:53:34.861Z,99633.56
2022-08-17T18:56:35.051Z,99633.70
2022-08-17T18:59:27.116Z,99634.37
2022-08-17T19:02:15.299Z,99638.61
2022-08-17T19:05:08.171Z,99642.59
2022-08-17T19:07:40.902Z,99638.57
2022-08-17T19:10:23.974Z,99638.96
2022-08-17T19:13:14.089Z,99640.98
2022-08-17T19:16:15.970Z,99642.96
2022-08-17T19:18:50.932Z,99642.23
2022-08-17T19:21:27.226Z,99641.59
2022-08-17T19:24:19.678Z,99641.65
2022-08-17T19:26:56.851Z,99646.37
2022-08-17T19:30:07.819Z,99650.14
2022-08-17T19:32:36.656Z,99648.04
2022-08-17T19:35:08.297Z,99645.45
2022-08-17T19:37:47.516Z,99651.90
2022-08-17T19:40:53.700Z,99654.14
2022-08-17T19:43:47.303Z,99652.53
2022-08-17T19:46:48.641Z,99649.08
2022-08-17T19:49:50.485Z,99647.19
2022-08-17T19:52:27.203Z,99645.43
2022-08-17T19:55:09.017Z,99641.66
2022-08-17T19:58:07.868Z,99640.88
2022-08-17T20:00:42.975Z,99638.39
2022-08-17T20:03:34.239Z,99639.64
2022-08-17T20:06:12.928Z,99643.48
2022-08-17T20:08:54.040Z,99641.25
2022-08-17T20:11:31.484Z,99644.73
2022-08-17T20:14:28.712Z,99646.05
2022-08-17T20:17:01.920Z,99647.20
2022-08-17T20:20:01.566Z,99646.74
2022-08-17T20:22:50.421Z,99648.48
2022-08-17T20:25:31.604Z,99652.32
2022-08-17T20:28:24.170Z,99651.70
2022-08-17T20:30:52.581Z,99652.85
2022-08-17T20:33:36.764Z,99653.89
2022-08-17T20:36:22.741Z,99656.36
2022-08-17T20:38:56.683Z,99658.20
2022-08-17T20:41:29.905Z,99654.56
2022-08-17T20:43:58.441Z,99656.00
2022-08-17T20:46:41.942Z,99659.06
2022-08-17T20:49:22.767Z,99656.79
2022-08-17T20:52:02.930Z,99654.77
2022-08-17T20:54:57.829Z,99657.80
2022-08-17T20:57:34.408Z,99664.27
2022-08-17T21:00:19.071Z,99664.88
2022-08-17T21:02:50.093Z,99665.48
2022-08-17T21:05:38.616Z,99670.89
2022-08-17T21:08:16.711Z,99672.23
2022-08-17T21:10:47.094Z,99673.23
2022-08-17T21:13:15.703Z,99672.27
2022-08-17T21:16:22.408Z,99675.00
2022-08-17T21:19:03.176Z,99671.65
2022-08-17T21:21:58.200Z,99672.99
2022-08-17T21:24:55.418Z,99674.15
2022-08-17T21:27:37.503Z,99671.86
2022-08-17T21:30:06.628Z,99673.52
2022-08-17T21:32:42.176Z,99668.61
2022-08-17T21:35:19.428Z,99667.71
2022-08-17T21:37:50.576Z,99666.17
2022-08-17T21:40:25.402Z,99666.63
2022-08-17T21:42:58.196Z,99670.14
2022-08-17T21:45:36.112Z,99674.25
2022-08-17T21:48:19.777Z,99678.69
2022-08-17T21:51:18.113Z,99678.02
2022-08-17T21:53:56.189Z,99679.58
2022-08-17T21:56:33.044Z,99680.52
2022-08-17T21:59:04.774Z,99677.73
2022-08-17T22:01:37.464Z,99679.88
2022-08-17T22:04:17.625Z,99685.68
2022-08-17T22:06:52.349Z,99691.38
2022-08-17T22:09:32.326Z,99689.91
2022-08-17T22:12:07.215Z,99689.80
2022-08-17T22:14:52.960Z,99690.94
2022-08-17T22:17:29.812Z,99687.41
2022-08-17T22:20:09.440Z,99686.77
2022-08-17T22:23:03.974Z,99686.63
2022-08-17T22:25:36.210Z,99685.40
2022-08-17T22:28:09.593Z,99683.77
2022-08-17T22:31:01.299Z,99683.48
2022-08-17T22:33:43.923Z,99685.05
2022-08-17T22:36:30.239Z,99687.73
2022-08-17T22:39:22.405Z,99688.27
2022-08-17T22:41:54.868Z,99688.87
2022-08-17T22:44:23.374Z,99687.05
2022-08-17T22:46:55.586Z,99692.17
2022-08-17T22:49:38.781Z,99690.95
2022-08-17T22:52:32.040Z,99700.07
2022-08-17T22:55:35.035Z,99700.71
2022-08-17T22:58:29.611Z,99700.71
2022-08-17T23:01:31.621Z,99706.61
2022-08-17T23:04:06.812Z,99705.29
2022-08-17T23:06:37.723Z,99700.48
2022-08-17T23:09:07.580Z,99701.41
2022-08-17T23:11:49.889Z,99704.17
2022-08-17T23:14:22.612Z,99705.33
2022-08-17T23:16:51.092Z,99703.96
2022-08-17T23:19:21.319Z,99706.08
2022-08-17T23:21:52.641Z,99707.27
2022-08-17T23:24:24.744Z,99711.44
2022-08-17T23:26:54.346Z,99714.17
2022-08-17T23:29:22.580Z,99713.38
2022-08-17T23:31:51.899Z,99712.41
2022-08-17T23:34:19.894Z,99715.40
2022-08-17T23:36:52.358Z,99714.52
2022-08-17T23:39:24.631Z,99714.16
2022-08-17T23:42:00.973Z,99711.84
2022-08-17T23:44:28.927Z,99710.98
2022-08-17T23:46:57.525Z,99710.27
2022-08-17T23:49:25.695Z,99706.00
2022-08-17T23:51:55.306Z,99708.20
2022-08-17T23:54:26.973Z,99707.89
2022-08-17T23:56:54.909Z,99708.91
2022-08-17T23:59:23.730Z,99707.42
